Portada
METAR-TAF:

METAR-TAF

Aeroports :

Savonlinna, Finlàndia

latitud: 61-57N, longitud: 028-57E, altitud: 95 m

Observació

L'informe es va fer fa 19 minuts, a les 04:20 UTC
Vent 5 kt del Oest/Sud-Oest
Temperatura 15°C
Humitat 94%
Pressió 1008 hPa
Visibilitat 10 km o més
Cel ennuvolat a una alçada de 800 ft

METAR: EFSA 040420Z AUTO 25005KT 9999 BKN008 15/14 Q1008

Hora: 07:39 (04:39 UTC)


TAF: manca

Observacions i pronòstics meteorològics de més de 4000 aeroports (METAR i TAF).

Les estacions disponibles són els punts grocs i vermells al mapa.

Posi el ratolí al punt desitjat per veure el nom de l'estació.

Feu clic per veure les observacions i els pronòstics meteorològics.

Per canviar el mapa: feu clic els botons verds amb una creu de color negre per apropar; al botó verd amb un guió per allunyar la imatge; o en les fletxes verdes per a mapes adjacents.


METAR-TAF: